VK2CZZ Weather Reports


time (UTC)temp
C
wind
direction
speed
KPH
gust
KPH
rain 1hr
cm
rain 24hr
cm
rain mn
cm
humidity
%
barometer
mb
20190423042027 26 67 3.2 22.5 0.00 0.00 0.00 58 1023.3
20190423041538 26 71 8.0 22.5 0.00 0.00 0.00 60 1023.2
20190423041023 26 73 6.4 20.9 0.00 0.00 0.00 58 1023.1
20190423040037 27 67 4.8 17.7 0.00 0.00 0.00 58 1023.2
20190423035030 27 65 3.2 17.7 0.00 0.00 0.00 59 1023.2
20190423034522 27 61 6.4 17.7 0.00 0.00 0.00 59 1023.4
20190423034033 27 61 11.3 19.3 0.00 0.00 0.00 59 1023.4
20190423033021 27 66 11.3 20.9 0.00 0.00 0.00 60 1023.5
20190423032039 27 67 11.3 19.3 0.00 0.00 0.00 59 1023.5
20190423031530 27 83 8.0 19.3 0.00 0.00 0.00 59 1023.6
20190423031032 27 82 6.4 17.7 0.00 0.00 0.00 60 1023.6
20190423030026 27 68 6.4 19.3 0.00 0.00 0.00 60 1023.7
20190423025020 27 73 3.2 16.1 0.00 0.00 0.00 62 1023.9
20190423024532 27 73 9.7 19.3 0.00 0.00 0.00 61 1024.0
20190423024039 27 75 6.4 22.5 0.00 0.00 0.00 62 1024.1
20190423023033 27 72 4.8 19.3 0.00 0.00 0.00 61 1024.3
20190423022028 27 67 8.0 20.9 0.00 0.00 0.00 60 1024.3
20190423021518 27 64 4.8 17.7 0.00 0.00 0.00 61 1024.4
20190423021034 27 62 9.7 17.7 0.00 0.00 0.00 61 1024.5
20190423020033 27 57 3.2 14.5 0.00 0.00 0.00 62 1024.6
20190423015023 27 54 3.2 16.1 0.00 0.00 0.00 64 1024.9
20190423014532 26 56 8.0 17.7 0.00 0.00 0.00 65 1024.9
20190423014025 26 48 4.8 14.5 0.00 0.00 0.00 65 1025.0
20190423013034 26 63 8.0 17.7 0.00 0.00 0.00 65 1025.1
20190423012028 25 58 0.0 8.0 0.00 0.00 0.00 67 1025.3
20190423011518 26 58 1.6 14.5 0.00 0.00 0.00 66 1025.3
20190423011029 26 58 3.2 14.5 0.00 0.00 0.00 64 1025.4
20190423010027 26 49 1.6 14.5 0.00 0.00 0.00 65 1025.4
20190423005027 26 49 0.0 9.7 0.00 0.00 0.00 66 1025.5
20190423004518 26 49 1.6 9.7 0.00 0.00 0.00 64 1025.6
20190423004029 26 49 0.0 0.0 0.00 0.00 0.00 64 1025.7
20190423003025 26 49 0.0 0.0 0.00 0.00 0.00 66 1025.6
20190423002040 26 49 0.0 0.0 0.00 0.00 0.00 67 1025.7
20190423001530 26 49 0.0 0.0 0.00 0.00 0.00 67 1025.7
20190423001021 25 49 0.0 0.0 0.00 0.00 0.00 68 1025.9
20190423000034 25 49 0.0 0.0 0.00 0.00 0.00 69 1025.9
20190422235028 25 49 0.0 0.0 0.00 0.00 0.00 70 1026.0
20190422234521 25 49 0.0 0.0 0.00 0.00 0.00 71 1026.1
20190422234031 24 49 0.0 0.0 0.00 0.00 0.00 71 1026.1
20190422233026 25 49 0.0 0.0 0.00 0.00 0.00 70 1026.1
20190422232040 25 49 0.0 0.0 0.00 0.00 0.00 72 1026.1
20190422231530 24 49 0.0 0.0 0.00 0.00 0.00 74 1026.1
20190422231021 24 49 0.0 0.0 0.00 0.00 0.00 74 1026.1
20190422230023 24 49 0.0 0.0 0.00 0.00 0.00 76 1026.2
20190422225039 23 49 0.0 0.0 0.00 0.00 0.00 78 1026.1
20190422224530 23 49 0.0 0.0 0.00 0.00 0.00 79 1026.1
20190422224019 22 49 0.0 0.0 0.00 0.00 0.00 81 1026.2
20190422223038 21 49 0.0 0.0 0.00 0.00 0.00 86 1026.2
20190422222037 20 49 0.0 0.0 0.00 0.00 0.00 91 1026.2
20190422221526 20 49 0.0 0.0 0.00 0.00 0.00 93 1026.2
20190422221032 19 49 0.0 0.0 0.00 0.00 0.00 95 1026.2
20190422220041 18 49 0.0 0.0 0.00 0.00 0.00 97 1026.0
20190422215036 18 49 0.0 0.0 0.00 0.00 0.00 98 1025.9
20190422214530 18 49 0.0 0.0 0.00 0.00 0.00 98 1025.9
20190422214036 18 49 0.0 0.0 0.00 0.00 0.00 98 1025.9
20190422213043 17 49 0.0 0.0 0.00 0.00 0.00 98 1025.8
20190422212036 17 49 0.0 0.0 0.00 0.00 0.00 97 1025.6
20190422211523 16 49 0.0 0.0 0.00 0.00 0.00 97 1025.6
20190422211032 16 49 0.0 0.0 0.00 0.00 0.00 97 1025.4
20190422210029 16 49 0.0 0.0 0.00 0.00 0.00 97 1025.3
20190422205032 16 49 0.0 0.0 0.00 0.00 0.00 96 1025.3
20190422204542 16 49 0.0 0.0 0.00 0.00 0.00 96 1025.2
20190422204031 16 49 0.0 0.0 0.00 0.00 0.00 96 1025.1
20190422203030 16 49 0.0 0.0 0.00 0.00 0.00 96 1025.0
20190422202044 16 49 0.0 0.0 0.00 0.00 0.00 96 1024.9
20190422201536 16 49 0.0 0.0 0.00 0.00 0.00 95 1024.9
20190422201027 16 49 0.0 0.0 0.00 0.00 0.00 95 1024.8
20190422200026 16 49 0.0 0.0 0.00 0.00 0.00 95 1024.8
20190422195040 16 49 0.0 0.0 0.00 0.00 0.00 95 1024.6
20190422194529 16 49 0.0 0.0 0.00 0.00 0.00 95 1024.5
20190422194043 16 49 0.0 0.0 0.00 0.00 0.00 95 1024.5
20190422193035 16 49 0.0 0.0 0.00 0.00 0.00 95 1024.4
20190422192032 16 49 0.0 0.0 0.00 0.00 0.00 95 1024.3
20190422191522 16 49 0.0 0.0 0.00 0.00 0.00 95 1024.3
20190422191034 16 49 0.0 0.0 0.00 0.00 0.00 95 1024.3
20190422190030 17 49 0.0 0.0 0.00 0.00 0.00 95 1024.3
20190422185044 17 49 0.0 0.0 0.00 0.00 0.00 95 1024.1
20190422184534 17 49 0.0 0.0 0.00 0.00 0.00 95 1024.1
20190422184027 17 49 0.0 0.0 0.00 0.00 0.00 95 1024.0
20190422183024 17 49 0.0 0.0 0.00 0.00 0.00 95 1023.9
20190422182044 17 49 0.0 0.0 0.00 0.00 0.00 96 1023.9
20190422181532 17 49 0.0 0.0 0.00 0.00 0.00 96 1023.8
20190422181027 17 49 0.0 0.0 0.00 0.00 0.00 96 1023.9
20190422180028 17 49 0.0 0.0 0.00 0.00 0.00 96 1023.9
20190422175023 17 49 0.0 0.0 0.00 0.00 0.00 95 1023.8
20190422174544 17 49 0.0 0.0 0.00 0.00 0.00 95 1023.8
20190422174029 17 49 0.0 0.0 0.00 0.00 0.00 95 1023.8
20190422173026 17 49 0.0 0.0 0.00 0.00 0.00 95 1023.8
20190422172040 17 49 0.0 0.0 0.00 0.00 0.00 96 1023.8
20190422171530 17 49 0.0 0.0 0.00 0.00 0.00 96 1023.8
20190422171025 17 49 0.0 0.0 0.00 0.00 0.00 96 1023.8
20190422170044 17 49 0.0 0.0 0.00 0.00 0.00 97 1023.9
20190422165038 17 49 0.0 0.0 0.00 0.00 0.00 96 1023.9
20190422164527 17 49 0.0 0.0 0.00 0.00 0.00 96 1023.9
20190422164023 16 49 0.0 0.0 0.00 0.00 0.00 96 1023.9
20190422163039 16 49 0.0 0.0 0.00 0.00 0.00 95 1023.9
20190422162032 16 49 0.0 0.0 0.00 0.00 0.00 94 1023.9
20190422161521 17 49 0.0 0.0 0.00 0.00 0.00 94 1023.9
20190422161035 17 49 0.0 0.0 0.00 0.00 0.00 94 1023.8
20190422160032 17 49 0.0 0.0 0.00 0.00 0.00 94 1023.9
20190422155030 17 49 0.0 0.0 0.00 0.00 0.00 94 1024.0
20190422154519 17 49 0.0 0.0 0.00 0.00 0.00 94 1024.0
20190422154034 17 49 0.0 0.0 0.00 0.00 0.00 94 1024.0
20190422153029 17 49 0.0 0.0 0.00 0.00 0.00 94 1024.2
20190422152030 17 49 0.0 0.0 0.00 0.00 0.00 94 1024.1
20190422151540 17 49 0.0 0.0 0.00 0.00 0.00 94 1024.1
20190422151032 17 49 0.0 0.0 0.00 0.00 0.00 93 1024.2
20190422150027 17 49 0.0 0.0 0.00 0.00 0.00 94 1024.3
20190422145042 17 49 0.0 0.0 0.00 0.00 0.00 94 1024.3
20190422144532 17 49 0.0 0.0 0.00 0.00 0.00 94 1024.3
20190422144023 17 49 0.0 0.0 0.00 0.00 0.00 94 1024.3
20190422143043 17 49 0.0 0.0 0.00 0.00 0.00 94 1024.4
20190422142040 17 49 0.0 0.0 0.00 0.00 0.00 95 1024.4
20190422141531 17 49 0.0 0.0 0.00 0.00 0.00 94 1024.3
20190422141043 17 49 0.0 0.0 0.00 0.00 0.00 93 1024.3
20190422140039 17 49 0.0 0.0 0.00 0.00 0.00 93 1024.3
20190422135033 17 49 0.0 0.0 0.00 0.00 0.00 92 1024.2
20190422134521 17 49 0.0 0.0 0.00 0.00 0.00 92 1024.3
20190422134035 18 49 0.0 0.0 0.00 0.00 0.00 92 1024.2
20190422133039 18 49 0.0 0.0 0.00 0.00 0.00 91 1024.2
20190422132039 18 49 0.0 0.0 0.00 0.00 0.00 90 1024.2
20190422131527 18 49 0.0 0.0 0.00 0.00 0.00 90 1024.2
20190422131040 18 49 0.0 0.0 0.00 0.00 0.00 90 1024.2
20190422130033 18 49 0.0 0.0 0.00 0.00 0.00 89 1024.2
20190422125025 19 49 0.0 0.0 0.00 0.00 0.00 89 1024.1
20190422124536 19 49 0.0 0.0 0.00 0.00 0.00 88 1024.1
20190422124024 19 49 0.0 0.0 0.00 0.00 0.00 88 1024.1
20190422123036 20 49 0.0 0.0 0.00 0.00 0.00 87 1024.1
20190422122027 20 49 0.0 0.0 0.00 0.00 0.00 86 1024.1
20190422121536 20 49 0.0 0.0 0.00 0.00 0.00 87 1024.0
20190422121042 20 49 0.0 0.0 0.00 0.00 0.00 86 1024.0
20190422120034 20 49 0.0 0.0 0.00 0.00 0.00 86 1023.9
20190422115042 21 49 0.0 0.0 0.00 0.00 0.00 85 1023.8
20190422114527 21 49 0.0 0.0 0.00 0.00 0.00 85 1023.7
20190422114029 21 49 0.0 6.4 0.00 0.00 0.00 85 1023.7
20190422113033 21 49 1.6 11.3 0.00 0.00 0.00 84 1023.5
20190422112029 21 52 3.2 12.9 0.00 0.00 0.00 84 1023.4
20190422111535 21 52 4.8 12.9 0.00 0.00 0.00 83 1023.5
20190422111038 21 52 1.6 12.9 0.00 0.00 0.00 83 1023.5
20190422110034 21 55 4.8 16.1 0.00 0.00 0.00 83 1023.4
20190422105026 21 54 0.0 9.7 0.00 0.00 0.00 85 1023.2
20190422104527 21 53 0.0 9.7 0.00 0.00 0.00 85 1023.2
20190422104035 21 54 0.0 0.0 0.00 0.00 0.00 85 1023.1
20190422103026 21 54 4.8 16.1 0.00 0.00 0.00 85 1023.1
20190422102038 21 54 4.8 12.9 0.00 0.00 0.00 84 1023.0
20190422101531 21 56 4.8 16.1 0.00 0.00 0.00 85 1022.9
20190422101031 21 58 6.4 16.1 0.00 0.00 0.00 85 1022.9
20190422100040 21 60 4.8 16.1 0.00 0.00 0.00 85 1022.8
20190422095025 21 59 8.0 19.3 0.00 0.00 0.00 85 1022.7
20190422094534 21 60 3.2 12.9 0.00 0.00 0.00 85 1022.7
20190422094040 21 61 8.0 16.1 0.00 0.00 0.00 85 1022.6
20190422093027 21 60 8.0 16.1 0.00 0.00 0.00 85 1022.5
20190422092035 21 60 4.8 14.5 0.00 0.00 0.00 85 1022.5
20190422091036 21 62 6.4 19.3 0.00 0.00 0.00 85 1022.4
20190422090029 21 63 4.8 14.5 0.00 0.00 0.00 85 1022.3
20190422085042 22 63 4.8 14.5 0.00 0.00 0.00 85 1022.2
20190422084534 22 63 6.4 17.7 0.00 0.00 0.00 85 1022.1
20190422084043 22 63 4.8 17.7 0.00 0.00 0.00 85 1022.0
20190422083040 22 62 11.3 19.3 0.00 0.00 0.00 84 1021.9
20190422082034 22 60 6.4 16.1 0.00 0.00 0.00 83 1021.8
20190422081524 22 60 4.8 19.3 0.00 0.00 0.00 83 1021.8
20190422081034 22 59 8.0 19.3 0.00 0.00 0.00 83 1021.8
20190422080028 22 55 4.8 16.1 0.00 0.00 0.00 82 1021.7
20190422075025 22 60 9.7 20.9 0.00 0.00 0.00 81 1021.4
20190422074535 22 57 6.4 22.5 0.00 0.00 0.00 81 1021.4
20190422074024 22 59 6.4 19.3 0.00 0.00 0.00 80 1021.4
20190422073037 22 59 3.2 22.5 0.00 0.00 0.00 80 1021.3
20190422072034 23 57 1.6 14.5 0.00 0.00 0.00 79 1021.2
20190422071523 23 57 6.4 17.7 0.00 0.00 0.00 79 1021.2
20190422071035 23 57 9.7 17.7 0.00 0.00 0.00 79 1021.2
20190422070034 23 59 8.0 19.3 0.00 0.00 0.00 78 1021.1
20190422065027 23 59 4.8 19.3 0.00 0.00 0.00 77 1020.9
20190422064537 23 59 9.7 19.3 0.00 0.00 0.00 77 1020.8
20190422064028 23 57 8.0 17.7 0.00 0.00 0.00 77 1020.7
20190422063041 23 62 6.4 19.3 0.00 0.00 0.00 77 1020.7
20190422062035 23 65 3.2 24.1 0.00 0.00 0.00 77 1020.5
20190422061534 23 64 8.0 24.1 0.00 0.00 0.00 77 1020.4
20190422061035 23 61 6.4 19.3 0.00 0.00 0.00 76 1020.5
20190422060029 24 65 6.4 20.9 0.00 0.00 0.00 75 1020.5
20190422055023 24 66 6.4 19.3 0.00 0.00 0.00 75 1020.4
20190422054533 24 63 6.4 29.0 0.00 0.00 0.00 74 1020.4
20190422054024 24 75 6.4 29.0 0.00 0.00 0.00 74 1020.5
20190422053038 25 65 4.8 19.3 0.00 0.00 0.00 73 1020.5
20190422052032 25 57 12.9 19.3 0.00 0.00 0.00 71 1020.6
20190422051523 25 65 4.8 20.9 0.00 0.00 0.00 70 1020.5
20190422051036 25 63 3.2 20.9 0.00 0.00 0.00 68 1020.4
20190422050029 26 49 4.8 14.5 0.00 0.00 0.00 66 1020.3
20190422045024 26 42 4.8 16.1 0.00 0.00 0.00 61 1020.4
20190422044538 26 40 6.4 16.1 0.00 0.00 0.00 60 1020.4
20190422044026 26 35 6.4 12.9 0.00 0.00 0.00 60 1020.4
20190422043023 26 33 9.7 14.5 0.00 0.00 0.00 61 1020.3